createdAt,value
2022-12-27T00:00:35.827Z,2.30
2022-12-27T00:03:05.761Z,1.97
2022-12-27T00:05:35.513Z,2.90
2022-12-27T00:08:05.310Z,1.73
2022-12-27T00:10:35.100Z,1.90
2022-12-27T00:13:07.611Z,2.20
2022-12-27T00:15:37.987Z,2.10
2022-12-27T00:18:07.944Z,2.13
2022-12-27T00:20:37.657Z,2.17
2022-12-27T00:23:07.389Z,2.60
2022-12-27T00:25:37.480Z,1.87
2022-12-27T00:28:09.886Z,2.47
2022-12-27T00:30:39.615Z,1.90
2022-12-27T00:33:09.360Z,1.90
2022-12-27T00:35:41.516Z,1.77
2022-12-27T00:38:11.222Z,2.80
2022-12-27T00:40:42.768Z,2.77
2022-12-27T00:43:15.124Z,2.87
2022-12-27T00:45:45.940Z,1.90
2022-12-27T00:48:15.795Z,2.03
2022-12-27T00:50:47.100Z,2.00
2022-12-27T00:53:17.015Z,2.20
2022-12-27T00:55:48.296Z,1.97
2022-12-27T00:58:20.650Z,2.10
2022-12-27T01:00:50.728Z,2.10
2022-12-27T01:03:21.477Z,2.63
2022-12-27T01:05:51.285Z,2.13
2022-12-27T01:08:21.015Z,2.20
2022-12-27T01:10:50.722Z,2.07
2022-12-27T01:13:23.035Z,2.10
2022-12-27T01:15:52.757Z,2.47
2022-12-27T01:18:22.682Z,2.33
2022-12-27T01:20:52.486Z,1.97
2022-12-27T01:23:22.478Z,2.30
2022-12-27T01:25:52.220Z,2.07
2022-12-27T01:28:24.539Z,2.20
2022-12-27T01:30:54.250Z,2.10
2022-12-27T01:33:23.967Z,2.00
2022-12-27T01:35:53.772Z,2.00
2022-12-27T01:38:23.522Z,2.13
2022-12-27T01:40:53.254Z,2.23
2022-12-27T01:43:40.579Z,1.70
2022-12-27T01:46:10.499Z,2.00
2022-12-27T01:48:40.320Z,2.03
2022-12-27T01:51:11.382Z,2.20
2022-12-27T01:53:44.836Z,2.13
2022-12-27T01:56:19.643Z,2.07
2022-12-27T01:58:55.974Z,2.03
2022-12-27T02:01:30.097Z,2.13
2022-12-27T02:04:02.708Z,1.80
2022-12-27T02:06:34.101Z,1.70
2022-12-27T02:09:10.191Z,2.10
2022-12-27T02:11:57.073Z,2.17
2022-12-27T02:14:34.442Z,2.43
2022-12-27T02:17:06.755Z,2.03
2022-12-27T02:19:53.754Z,1.97
2022-12-27T02:23:17.101Z,2.67
2022-12-27T02:26:22.923Z,2.23
2022-12-27T02:29:10.492Z,2.17
2022-12-27T02:31:46.118Z,1.93
2022-12-27T02:34:21.665Z,2.30
2022-12-27T02:36:54.220Z,2.40
2022-12-27T02:39:25.882Z,2.00
2022-12-27T02:42:10.155Z,2.27
2022-12-27T02:44:54.839Z,2.63
2022-12-27T02:47:39.754Z,2.20
2022-12-27T02:50:23.890Z,2.67
2022-12-27T02:53:08.104Z,2.33
2022-12-27T02:56:11.492Z,1.73
2022-12-27T02:58:53.548Z,1.90
2022-12-27T03:01:51.245Z,2.30
2022-12-27T03:04:35.623Z,1.73
2022-12-27T03:07:22.164Z,1.90
2022-12-27T03:10:16.957Z,2.20
2022-12-27T03:13:10.883Z,2.17
2022-12-27T03:15:59.858Z,2.07
2022-12-27T03:18:49.316Z,2.13
2022-12-27T03:21:37.306Z,2.47
2022-12-27T03:24:28.076Z,2.53
2022-12-27T03:26:59.323Z,2.23
2022-12-27T03:29:42.652Z,2.17
2022-12-27T03:32:26.913Z,2.03
2022-12-27T03:35:06.608Z,2.20
2022-12-27T03:37:53.393Z,2.40
2022-12-27T03:40:30.152Z,2.63
2022-12-27T03:43:11.714Z,2.50
2022-12-27T03:46:10.279Z,2.43
2022-12-27T03:48:50.419Z,2.40
2022-12-27T03:51:25.649Z,2.53
2022-12-27T03:54:01.637Z,2.40
2022-12-27T03:56:32.392Z,2.47
2022-12-27T03:59:03.957Z,2.97
2022-12-27T04:01:33.896Z,2.60
2022-12-27T04:04:03.759Z,2.53
2022-12-27T04:06:36.170Z,2.70
2022-12-27T04:09:18.360Z,2.30
2022-12-27T04:12:00.484Z,2.17
2022-12-27T04:14:42.586Z,2.80
2022-12-27T04:17:24.744Z,2.10
2022-12-27T04:20:06.834Z,2.80
2022-12-27T04:22:51.590Z,2.50
2022-12-27T04:25:33.697Z,2.20
2022-12-27T04:28:15.813Z,1.60
2022-12-27T04:30:57.980Z,1.70
2022-12-27T04:33:40.141Z,1.50
2022-12-27T04:36:11.154Z,1.60
2022-12-27T04:38:43.480Z,1.47
2022-12-27T04:41:25.607Z,1.40
2022-12-27T04:44:07.785Z,1.00
2022-12-27T04:46:49.965Z,1.43
2022-12-27T04:49:52.301Z,1.10
2022-12-27T04:52:36.106Z,1.27
2022-12-27T04:55:22.432Z,2.00
2022-12-27T04:57:52.780Z,1.67
2022-12-27T05:00:37.079Z,2.20
2022-12-27T05:03:09.659Z,2.10
2022-12-27T05:05:40.818Z,2.00
2022-12-27T05:08:23.526Z,2.53
2022-12-27T05:11:08.435Z,2.10
2022-12-27T05:13:50.587Z,2.00
2022-12-27T05:16:20.346Z,1.80
2022-12-27T05:18:50.073Z,2.20
2022-12-27T05:21:19.787Z,2.07
2022-12-27T05:24:05.397Z,2.00
2022-12-27T05:26:38.833Z,2.13
2022-12-27T05:29:10.051Z,2.27
2022-12-27T05:31:39.835Z,2.37
2022-12-27T05:34:09.715Z,1.87
2022-12-27T05:36:39.462Z,2.23
2022-12-27T05:39:09.195Z,2.03
2022-12-27T05:41:41.590Z,2.17
2022-12-27T05:44:11.424Z,1.63
2022-12-27T05:46:41.280Z,2.37
2022-12-27T05:49:11.205Z,2.17
2022-12-27T05:51:40.954Z,2.00
2022-12-27T05:54:10.725Z,1.80
2022-12-27T05:56:43.257Z,2.33
2022-12-27T05:59:13.008Z,2.43
2022-12-27T06:01:42.881Z,2.87
2022-12-27T06:04:12.944Z,2.03
2022-12-27T06:06:42.682Z,2.23
2022-12-27T06:09:12.639Z,2.50
2022-12-27T06:11:45.133Z,2.43
2022-12-27T06:14:14.879Z,2.40
2022-12-27T06:16:44.687Z,1.60
2022-12-27T06:19:14.497Z,2.27
2022-12-27T06:21:44.352Z,2.03
2022-12-27T06:24:14.058Z,2.43
2022-12-27T06:26:46.410Z,2.47
2022-12-27T06:29:16.145Z,2.47
2022-12-27T06:31:45.891Z,2.10
2022-12-27T06:34:15.771Z,2.47
2022-12-27T06:36:50.011Z,2.17
2022-12-27T06:39:20.064Z,2.27
2022-12-27T06:41:55.348Z,2.37
2022-12-27T06:44:25.654Z,2.27
2022-12-27T06:46:55.363Z,2.27
2022-12-27T06:49:25.968Z,2.67
2022-12-27T06:51:59.483Z,2.27
2022-12-27T06:54:29.698Z,2.70
2022-12-27T06:57:02.176Z,2.70
2022-12-27T06:59:32.225Z,2.57
2022-12-27T07:02:02.078Z,2.20
2022-12-27T07:04:31.914Z,2.37
2022-12-27T07:07:01.731Z,2.10
2022-12-27T07:09:31.567Z,2.80
2022-12-27T07:12:03.998Z,2.43
2022-12-27T07:14:33.901Z,2.30
2022-12-27T07:17:03.690Z,2.33
2022-12-27T07:19:33.465Z,2.07
2022-12-27T07:22:03.264Z,2.17
2022-12-27T07:24:33.474Z,2.20
2022-12-27T07:27:05.901Z,1.83
2022-12-27T07:29:40.247Z,1.97
2022-12-27T07:32:13.349Z,2.20
2022-12-27T07:34:43.073Z,2.00
2022-12-27T07:37:12.833Z,2.80
2022-12-27T07:39:42.565Z,2.40
2022-12-27T07:42:14.873Z,2.43
2022-12-27T07:44:44.772Z,2.47
2022-12-27T07:47:14.517Z,2.50
2022-12-27T07:49:44.307Z,2.27
2022-12-27T07:52:14.124Z,2.17
2022-12-27T07:54:44.741Z,2.30
2022-12-27T07:57:19.336Z,2.83
2022-12-27T07:59:49.132Z,2.77
2022-12-27T08:02:19.300Z,2.67
2022-12-27T08:04:49.131Z,2.53
2022-12-27T08:07:21.268Z,2.97
2022-12-27T08:09:52.066Z,2.40
2022-12-27T08:12:24.389Z,2.40
2022-12-27T08:14:54.142Z,2.70
2022-12-27T08:17:27.275Z,2.73
2022-12-27T08:19:58.121Z,2.70
2022-12-27T08:22:27.850Z,2.97
2022-12-27T08:24:57.786Z,3.03
2022-12-27T08:27:30.108Z,2.80
2022-12-27T08:29:59.872Z,2.80
2022-12-27T08:32:29.697Z,2.50
2022-12-27T08:35:18.464Z,2.90
2022-12-27T08:37:49.157Z,2.47
2022-12-27T08:40:19.081Z,3.90
2022-12-27T08:42:51.495Z,2.73
2022-12-27T08:45:21.234Z,2.80
2022-12-27T08:47:51.199Z,2.20
2022-12-27T08:50:21.045Z,2.57
2022-12-27T08:52:50.749Z,2.77
2022-12-27T08:55:20.747Z,2.93
2022-12-27T08:57:53.191Z,2.77
2022-12-27T09:00:23.137Z,2.87
2022-12-27T09:02:52.856Z,2.77
2022-12-27T09:05:23.054Z,3.07
2022-12-27T09:07:53.313Z,2.43
2022-12-27T09:10:24.798Z,3.30
2022-12-27T09:12:57.195Z,2.53
2022-12-27T09:15:27.138Z,2.43
2022-12-27T09:17:56.987Z,2.57
2022-12-27T09:20:26.879Z,3.10
2022-12-27T09:22:56.644Z,2.37
2022-12-27T09:25:26.433Z,3.20
2022-12-27T09:27:58.760Z,2.73
2022-12-27T09:30:29.991Z,2.63
2022-12-27T09:33:00.957Z,2.23
2022-12-27T09:35:33.996Z,2.60
2022-12-27T09:38:06.635Z,2.47
2022-12-27T09:40:36.418Z,2.83
2022-12-27T09:43:22.360Z,2.87
2022-12-27T09:46:00.119Z,2.20
2022-12-27T09:48:34.956Z,2.20
2022-12-27T09:51:09.761Z,2.80
2022-12-27T09:53:47.076Z,2.13
2022-12-27T09:56:23.536Z,2.73
2022-12-27T09:58:58.288Z,2.40
2022-12-27T10:01:35.684Z,2.50
2022-12-27T10:04:07.283Z,2.73
2022-12-27T10:06:55.939Z,3.43
2022-12-27T10:09:45.421Z,2.60
2022-12-27T10:12:31.565Z,3.33
2022-12-27T10:15:14.058Z,2.80
2022-12-27T10:17:57.924Z,2.10
2022-12-27T10:20:39.255Z,2.70
2022-12-27T10:23:15.011Z,2.73
2022-12-27T10:25:47.904Z,2.70
2022-12-27T10:28:23.082Z,2.90
2022-12-27T10:30:55.493Z,2.33
2022-12-27T10:33:30.466Z,3.43
2022-12-27T10:36:01.243Z,2.50
2022-12-27T10:38:36.444Z,2.47
2022-12-27T10:41:20.277Z,2.60
2022-12-27T10:43:53.625Z,2.53
2022-12-27T10:46:32.729Z,2.70
2022-12-27T10:49:21.533Z,2.63
2022-12-27T10:51:54.133Z,2.30
2022-12-27T10:54:27.000Z,2.10
2022-12-27T10:56:57.868Z,2.20
2022-12-27T10:59:29.449Z,2.00
2022-12-27T11:02:22.416Z,2.33
2022-12-27T11:05:03.335Z,2.17
2022-12-27T11:07:35.398Z,2.77
2022-12-27T11:10:18.550Z,2.37
2022-12-27T11:13:00.725Z,2.37
2022-12-27T11:15:32.007Z,2.47
2022-12-27T11:18:07.568Z,2.30
2022-12-27T11:20:42.138Z,2.40
2022-12-27T11:23:18.791Z,2.33
2022-12-27T11:25:56.228Z,2.63
2022-12-27T11:28:32.158Z,2.00
2022-12-27T11:31:04.130Z,2.80
2022-12-27T11:33:40.051Z,2.13
2022-12-27T11:36:12.615Z,2.07
2022-12-27T11:38:48.140Z,2.00
2022-12-27T11:41:27.778Z,2.23
2022-12-27T11:44:01.964Z,2.53
2022-12-27T11:46:40.414Z,1.73
2022-12-27T11:49:23.754Z,2.53
2022-12-27T11:52:18.373Z,2.20
2022-12-27T11:55:20.293Z,2.33
2022-12-27T11:58:21.511Z,2.10
2022-12-27T12:01:05.353Z,2.40
2022-12-27T12:04:08.452Z,2.13
2022-12-27T12:06:52.301Z,2.10
2022-12-27T12:09:37.132Z,2.20
2022-12-27T12:12:43.644Z,2.37
2022-12-27T12:15:36.876Z,2.73
2022-12-27T12:18:52.316Z,2.53
2022-12-27T12:21:29.185Z,2.40
2022-12-27T12:24:37.484Z,2.50
2022-12-27T12:27:29.741Z,2.70
2022-12-27T12:30:36.081Z,2.60
2022-12-27T12:33:32.598Z,2.53
2022-12-27T12:36:28.063Z,2.47
2022-12-27T12:39:05.643Z,2.47
2022-12-27T12:41:58.972Z,3.17
2022-12-27T12:44:54.958Z,2.30
2022-12-27T12:47:44.190Z,2.30
2022-12-27T12:50:31.717Z,2.53
2022-12-27T12:53:25.557Z,2.30
2022-12-27T12:56:07.511Z,1.83
2022-12-27T12:58:57.902Z,3.67
2022-12-27T13:01:50.512Z,2.67
2022-12-27T13:04:51.459Z,2.23
2022-12-27T13:07:41.665Z,2.53
2022-12-27T13:10:36.184Z,2.87
2022-12-27T13:13:13.248Z,2.03
2022-12-27T13:15:59.625Z,2.33
2022-12-27T13:18:41.722Z,2.63
2022-12-27T13:21:27.181Z,2.40
2022-12-27T13:24:09.712Z,2.30
2022-12-27T13:26:50.900Z,2.00
2022-12-27T13:29:41.439Z,2.23
2022-12-27T13:32:19.218Z,2.10
2022-12-27T13:35:06.238Z,2.20
2022-12-27T13:37:48.120Z,1.87
2022-12-27T13:40:37.944Z,2.23
2022-12-27T13:43:35.158Z,2.23
2022-12-27T13:46:20.310Z,1.80
2022-12-27T13:49:05.747Z,2.00
2022-12-27T13:51:49.009Z,3.03
2022-12-27T13:55:01.101Z,2.03
2022-12-27T13:58:03.271Z,1.90
2022-12-27T14:00:41.159Z,2.53
2022-12-27T14:03:43.650Z,2.10
2022-12-27T14:06:37.999Z,2.00
2022-12-27T14:09:38.465Z,2.40
2022-12-27T14:12:31.406Z,2.33
2022-12-27T14:15:06.771Z,2.40
2022-12-27T14:17:42.813Z,1.67
2022-12-27T14:20:36.657Z,2.30
2022-12-27T14:23:23.227Z,3.03
2022-12-27T14:26:24.528Z,2.67
2022-12-27T14:29:23.587Z,2.57
2022-12-27T14:32:09.395Z,2.37
2022-12-27T14:35:03.129Z,2.43
2022-12-27T14:38:01.000Z,2.73
2022-12-27T14:41:06.308Z,3.10
2022-12-27T14:44:17.999Z,3.30
2022-12-27T14:47:16.276Z,4.00
2022-12-27T14:50:17.156Z,3.60
2022-12-27T14:53:23.060Z,3.60
2022-12-27T14:56:02.168Z,3.30
2022-12-27T14:58:54.768Z,3.20
2022-12-27T15:01:39.495Z,3.60
2022-12-27T15:04:41.363Z,3.40
2022-12-27T15:07:45.116Z,3.53
2022-12-27T15:10:26.081Z,3.87
2022-12-27T15:13:09.305Z,3.90
2022-12-27T15:15:53.156Z,2.93
2022-12-27T15:18:50.073Z,3.83
2022-12-27T15:21:42.115Z,3.93
2022-12-27T15:24:24.378Z,4.40
2022-12-27T15:26:59.806Z,4.73
2022-12-27T15:29:40.337Z,4.07
2022-12-27T15:32:26.934Z,3.50
2022-12-27T15:35:11.610Z,3.17
2022-12-27T15:38:07.408Z,3.00
2022-12-27T15:40:51.331Z,3.47
2022-12-27T15:43:47.647Z,3.50
2022-12-27T15:46:41.757Z,3.53
2022-12-27T15:49:35.907Z,4.73
2022-12-27T15:52:13.805Z,4.43
2022-12-27T15:55:08.628Z,3.93
2022-12-27T15:58:05.840Z,4.20
2022-12-27T16:00:36.471Z,4.97
2022-12-27T16:03:36.477Z,5.00
2022-12-27T16:06:08.604Z,5.43
2022-12-27T16:08:41.675Z,4.20
2022-12-27T16:11:15.833Z,6.17
2022-12-27T16:13:48.523Z,5.53
2022-12-27T16:16:57.258Z,6.70
2022-12-27T16:19:59.843Z,5.80
2022-12-27T16:22:36.173Z,7.23
2022-12-27T16:25:31.314Z,15.33
2022-12-27T16:28:08.296Z,8.07
2022-12-27T16:30:42.813Z,8.23
2022-12-27T16:33:31.301Z,7.27
2022-12-27T16:36:23.501Z,7.13
2022-12-27T16:39:23.149Z,7.20
2022-12-27T16:42:08.804Z,8.50
2022-12-27T16:45:08.425Z,8.13
2022-12-27T16:48:05.637Z,7.73
2022-12-27T16:50:50.160Z,8.10
2022-12-27T16:53:46.118Z,8.47
2022-12-27T16:56:24.195Z,8.30
2022-12-27T16:58:54.590Z,8.67
2022-12-27T17:02:02.838Z,8.40
2022-12-27T17:04:58.504Z,8.43
2022-12-27T17:08:00.664Z,8.47
2022-12-27T17:10:57.903Z,8.43
2022-12-27T17:13:37.158Z,8.80
2022-12-27T17:16:11.793Z,9.60
2022-12-27T17:18:49.895Z,9.70
2022-12-27T17:21:30.372Z,9.77
2022-12-27T17:24:02.723Z,10.33
2022-12-27T17:26:58.182Z,9.77
2022-12-27T17:30:05.986Z,9.40
2022-12-27T17:32:59.863Z,10.10
2022-12-27T17:35:34.600Z,10.00
2022-12-27T17:38:22.321Z,10.30
2022-12-27T17:41:03.129Z,9.70
2022-12-27T17:43:54.467Z,10.03
2022-12-27T17:46:36.559Z,9.73
2022-12-27T17:49:08.693Z,10.33
2022-12-27T17:52:02.625Z,10.50
2022-12-27T17:54:47.571Z,10.83
2022-12-27T17:57:32.673Z,11.30
2022-12-27T18:00:02.727Z,10.50
2022-12-27T18:02:35.974Z,11.13
2022-12-27T18:05:09.142Z,11.10
2022-12-27T18:07:38.887Z,11.47
2022-12-27T18:10:21.638Z,12.40
2022-12-27T18:12:55.275Z,11.57
2022-12-27T18:15:26.697Z,12.33
2022-12-27T18:17:58.670Z,12.97
2022-12-27T18:20:38.161Z,11.97
2022-12-27T18:23:17.615Z,13.37
2022-12-27T18:26:13.406Z,12.53
2022-12-27T18:28:44.872Z,12.20
2022-12-27T18:31:19.305Z,13.67
2022-12-27T18:33:52.656Z,12.97
2022-12-27T18:36:30.507Z,12.67
2022-12-27T18:39:02.622Z,13.63
2022-12-27T18:41:44.945Z,13.47
2022-12-27T18:44:26.552Z,11.97
2022-12-27T18:46:59.687Z,13.10
2022-12-27T18:49:33.667Z,12.53
2022-12-27T18:52:04.480Z,13.30
2022-12-27T18:54:37.435Z,12.20
2022-12-27T18:57:30.951Z,13.13
2022-12-27T19:00:15.304Z,12.70
2022-12-27T19:02:45.928Z,12.90
2022-12-27T19:05:26.114Z,13.13
2022-12-27T19:07:59.763Z,12.17
2022-12-27T19:10:33.644Z,12.50
2022-12-27T19:13:06.607Z,12.57
2022-12-27T19:15:43.591Z,13.13
2022-12-27T19:18:24.911Z,11.93
2022-12-27T19:20:58.660Z,12.10
2022-12-27T19:23:37.356Z,11.77
2022-12-27T19:26:10.257Z,12.17
2022-12-27T19:28:42.665Z,12.77
2022-12-27T19:31:22.116Z,11.30
2022-12-27T19:33:55.051Z,11.40
2022-12-27T19:36:29.439Z,10.80
2022-12-27T19:38:59.579Z,11.63
2022-12-27T19:41:29.954Z,12.33
2022-12-27T19:44:03.572Z,11.53
2022-12-27T19:46:33.369Z,10.17
2022-12-27T19:51:53.185Z,9.87
2022-12-27T19:54:24.945Z,9.60
2022-12-27T19:56:55.148Z,9.20
2022-12-27T19:59:28.441Z,9.20
2022-12-27T20:01:58.707Z,9.07
2022-12-27T20:04:29.602Z,10.70
2022-12-27T20:07:00.072Z,8.13
2022-12-27T20:09:30.345Z,8.83
2022-12-27T20:12:00.191Z,8.27
2022-12-27T20:14:32.714Z,7.33
2022-12-27T20:17:02.619Z,7.43
2022-12-27T20:19:32.355Z,7.53
2022-12-27T20:22:02.293Z,7.50
2022-12-27T20:24:33.107Z,7.50
2022-12-27T20:27:03.103Z,6.70
2022-12-27T20:29:35.574Z,7.00
2022-12-27T20:32:05.294Z,6.70
2022-12-27T20:34:35.056Z,6.50
2022-12-27T20:37:05.236Z,6.67
2022-12-27T20:39:34.964Z,6.43
2022-12-27T20:42:04.795Z,6.20
2022-12-27T20:44:37.163Z,6.00
2022-12-27T20:47:06.923Z,6.47
2022-12-27T20:49:36.669Z,5.73
2022-12-27T20:52:06.892Z,6.07
2022-12-27T20:54:37.219Z,6.27
2022-12-27T20:57:07.065Z,6.40
2022-12-27T20:59:39.439Z,6.90
2022-12-27T21:02:09.487Z,6.67
2022-12-27T21:04:39.300Z,5.93
2022-12-27T21:07:09.005Z,6.23
2022-12-27T21:09:38.878Z,5.67
2022-12-27T21:12:09.207Z,6.00
2022-12-27T21:14:41.965Z,5.60
2022-12-27T21:17:11.751Z,5.53
2022-12-27T21:19:41.589Z,5.97
2022-12-27T21:22:11.935Z,6.37
2022-12-27T21:24:41.695Z,5.43
2022-12-27T21:27:11.418Z,5.60
2022-12-27T21:29:43.779Z,5.60
2022-12-27T21:32:13.502Z,6.43
2022-12-27T21:34:43.232Z,5.77
2022-12-27T21:37:13.632Z,5.40
2022-12-27T21:39:43.902Z,5.40
2022-12-27T21:42:14.592Z,5.70
2022-12-27T21:44:47.069Z,5.00
2022-12-27T21:47:16.807Z,5.03
2022-12-27T21:49:46.599Z,5.53
2022-12-27T21:52:16.364Z,5.00
2022-12-27T21:54:46.094Z,4.77
2022-12-27T21:57:15.889Z,4.90
2022-12-27T21:59:48.208Z,5.40
2022-12-27T22:02:18.725Z,4.97
2022-12-27T22:04:48.607Z,4.70
2022-12-27T22:07:18.350Z,4.57
2022-12-27T22:09:48.637Z,4.60
2022-12-27T22:12:18.322Z,4.53
2022-12-27T22:14:50.681Z,4.70
2022-12-27T22:17:20.471Z,4.90
2022-12-27T22:19:50.172Z,3.97
2022-12-27T22:22:19.881Z,4.20
2022-12-27T22:24:49.594Z,4.30
2022-12-27T22:27:19.294Z,4.87
2022-12-27T22:29:51.637Z,4.43
2022-12-27T22:32:21.408Z,4.30
2022-12-27T22:34:51.114Z,4.60
2022-12-27T22:37:20.866Z,4.53
2022-12-27T22:39:50.604Z,5.00
2022-12-27T22:42:20.353Z,4.30
2022-12-27T22:44:52.690Z,4.40
2022-12-27T22:47:27.312Z,5.00
2022-12-27T22:49:57.840Z,4.40
2022-12-27T22:52:27.552Z,4.53
2022-12-27T22:55:04.140Z,4.47
2022-12-27T22:57:36.513Z,4.80
2022-12-27T23:00:12.510Z,4.80
2022-12-27T23:02:42.621Z,4.77
2022-12-27T23:05:12.845Z,5.33
2022-12-27T23:08:04.547Z,4.40
2022-12-27T23:10:32.304Z,5.10
2022-12-27T23:13:02.091Z,4.60
2022-12-27T23:15:34.548Z,4.67
2022-12-27T23:18:04.287Z,4.63
2022-12-27T23:20:36.749Z,4.53
2022-12-27T23:23:06.512Z,4.50
2022-12-27T23:25:38.518Z,4.50
2022-12-27T23:28:08.355Z,4.60
2022-12-27T23:30:40.769Z,4.97
2022-12-27T23:33:10.619Z,4.50
2022-12-27T23:35:40.531Z,4.77
2022-12-27T23:38:10.335Z,5.00
2022-12-27T23:40:40.116Z,4.90
2022-12-27T23:43:42.008Z,4.10
2022-12-27T23:46:07.366Z,4.97
2022-12-27T23:48:37.472Z,4.40
2022-12-27T23:51:07.705Z,4.33
2022-12-27T23:53:37.587Z,4.23
2022-12-27T23:56:11.333Z,4.17
2022-12-27T23:58:41.253Z,4.30
